sensor_id;sensor_type;location;lat;lon;timestamp;P1;durP1;ratioP1;P2;durP2;ratioP2
7813;SDS011;3952;48.364;16.022;2023-01-08T00:02:24;34.87;;;24.00;;
7813;SDS011;3952;48.364;16.022;2023-01-08T00:04:51;36.03;;;24.43;;
7813;SDS011;3952;48.364;16.022;2023-01-08T00:07:18;36.83;;;23.97;;
7813;SDS011;3952;48.364;16.022;2023-01-08T00:09:45;32.60;;;24.00;;
7813;SDS011;3952;48.364;16.022;2023-01-08T00:12:14;33.20;;;23.50;;
7813;SDS011;3952;48.364;16.022;2023-01-08T00:14:42;31.03;;;23.73;;
7813;SDS011;3952;48.364;16.022;2023-01-08T00:17:09;31.37;;;22.80;;
7813;SDS011;3952;48.364;16.022;2023-01-08T00:19:37;28.50;;;22.20;;
7813;SDS011;3952;48.364;16.022;2023-01-08T00:22:07;29.67;;;22.50;;
7813;SDS011;3952;48.364;16.022;2023-01-08T00:24:34;25.53;;;19.57;;
7813;SDS011;3952;48.364;16.022;2023-01-08T00:27:01;31.93;;;23.77;;
7813;SDS011;3952;48.364;16.022;2023-01-08T00:29:28;34.80;;;24.27;;
7813;SDS011;3952;48.364;16.022;2023-01-08T00:31:56;26.57;;;20.47;;
7813;SDS011;3952;48.364;16.022;2023-01-08T00:34:23;24.07;;;19.80;;
7813;SDS011;3952;48.364;16.022;2023-01-08T00:36:52;26.13;;;20.73;;
7813;SDS011;3952;48.364;16.022;2023-01-08T00:41:57;29.80;;;21.27;;
7813;SDS011;3952;48.364;16.022;2023-01-08T00:44:24;26.67;;;20.70;;
7813;SDS011;3952;48.364;16.022;2023-01-08T00:46:51;29.67;;;21.93;;
7813;SDS011;3952;48.364;16.022;2023-01-08T00:49:18;25.00;;;20.73;;
7813;SDS011;3952;48.364;16.022;2023-01-08T00:51:45;27.07;;;20.33;;
7813;SDS011;3952;48.364;16.022;2023-01-08T00:54:14;26.43;;;20.27;;
7813;SDS011;3952;48.364;16.022;2023-01-08T00:56:42;27.97;;;20.70;;
7813;SDS011;3952;48.364;16.022;2023-01-08T00:59:09;29.33;;;21.67;;
7813;SDS011;3952;48.364;16.022;2023-01-08T01:01:36;29.83;;;22.07;;
7813;SDS011;3952;48.364;16.022;2023-01-08T01:04:03;31.03;;;21.50;;
7813;SDS011;3952;48.364;16.022;2023-01-08T01:06:31;29.47;;;21.67;;
7813;SDS011;3952;48.364;16.022;2023-01-08T01:08:58;36.23;;;22.53;;
7813;SDS011;3952;48.364;16.022;2023-01-08T01:11:27;32.77;;;21.20;;
7813;SDS011;3952;48.364;16.022;2023-01-08T01:13:55;32.50;;;21.20;;
7813;SDS011;3952;48.364;16.022;2023-01-08T01:16:22;32.30;;;20.57;;
7813;SDS011;3952;48.364;16.022;2023-01-08T01:18:50;33.73;;;21.40;;
7813;SDS011;3952;48.364;16.022;2023-01-08T01:21:20;33.17;;;22.77;;
7813;SDS011;3952;48.364;16.022;2023-01-08T01:23:51;35.27;;;21.70;;
7813;SDS011;3952;48.364;16.022;2023-01-08T01:26:20;35.40;;;22.97;;
7813;SDS011;3952;48.364;16.022;2023-01-08T01:28:50;33.13;;;21.30;;
7813;SDS011;3952;48.364;16.022;2023-01-08T01:31:19;39.97;;;23.17;;
7813;SDS011;3952;48.364;16.022;2023-01-08T01:34:02;35.73;;;22.57;;
7813;SDS011;3952;48.364;16.022;2023-01-08T01:36:29;36.17;;;22.27;;
7813;SDS011;3952;48.364;16.022;2023-01-08T01:38:59;34.20;;;21.57;;
7813;SDS011;3952;48.364;16.022;2023-01-08T01:41:28;38.07;;;22.97;;
7813;SDS011;3952;48.364;16.022;2023-01-08T01:44:41;37.97;;;22.80;;
7813;SDS011;3952;48.364;16.022;2023-01-08T01:47:12;39.13;;;24.03;;
7813;SDS011;3952;48.364;16.022;2023-01-08T01:49:47;39.13;;;23.43;;
7813;SDS011;3952;48.364;16.022;2023-01-08T01:52:20;42.97;;;23.10;;
7813;SDS011;3952;48.364;16.022;2023-01-08T01:54:48;36.93;;;22.67;;
7813;SDS011;3952;48.364;16.022;2023-01-08T01:57:17;38.67;;;23.83;;
7813;SDS011;3952;48.364;16.022;2023-01-08T01:59:46;36.23;;;22.37;;
7813;SDS011;3952;48.364;16.022;2023-01-08T02:02:14;36.93;;;22.77;;
7813;SDS011;3952;48.364;16.022;2023-01-08T02:04:41;37.50;;;22.13;;
7813;SDS011;3952;48.364;16.022;2023-01-08T02:07:10;35.50;;;22.57;;
7813;SDS011;3952;48.364;16.022;2023-01-08T02:09:42;34.83;;;22.30;;
7813;SDS011;3952;48.364;16.022;2023-01-08T02:12:14;37.00;;;21.80;;
7813;SDS011;3952;48.364;16.022;2023-01-08T02:14:51;38.70;;;22.30;;
7813;SDS011;3952;48.364;16.022;2023-01-08T02:17:27;36.30;;;21.77;;
7813;SDS011;3952;48.364;16.022;2023-01-08T02:20:02;33.77;;;21.83;;
7813;SDS011;3952;48.364;16.022;2023-01-08T02:22:36;35.20;;;21.73;;
7813;SDS011;3952;48.364;16.022;2023-01-08T02:25:30;34.20;;;21.23;;
7813;SDS011;3952;48.364;16.022;2023-01-08T02:28:08;38.70;;;22.97;;
7813;SDS011;3952;48.364;16.022;2023-01-08T02:30:39;37.67;;;22.83;;
7813;SDS011;3952;48.364;16.022;2023-01-08T02:33:07;35.63;;;23.00;;
7813;SDS011;3952;48.364;16.022;2023-01-08T02:35:36;33.70;;;21.47;;
7813;SDS011;3952;48.364;16.022;2023-01-08T02:38:07;28.57;;;21.60;;
7813;SDS011;3952;48.364;16.022;2023-01-08T02:40:39;34.20;;;21.33;;
7813;SDS011;3952;48.364;16.022;2023-01-08T02:43:20;28.60;;;20.07;;
7813;SDS011;3952;48.364;16.022;2023-01-08T02:45:53;33.03;;;21.10;;
7813;SDS011;3952;48.364;16.022;2023-01-08T02:48:28;31.13;;;21.27;;
7813;SDS011;3952;48.364;16.022;2023-01-08T02:51:03;28.20;;;21.03;;
7813;SDS011;3952;48.364;16.022;2023-01-08T02:53:35;28.20;;;20.17;;
7813;SDS011;3952;48.364;16.022;2023-01-08T02:56:07;31.10;;;21.33;;
7813;SDS011;3952;48.364;16.022;2023-01-08T02:58:38;30.23;;;19.87;;
7813;SDS011;3952;48.364;16.022;2023-01-08T03:01:08;32.40;;;20.37;;
7813;SDS011;3952;48.364;16.022;2023-01-08T03:03:37;34.47;;;21.10;;
7813;SDS011;3952;48.364;16.022;2023-01-08T03:06:09;36.77;;;21.77;;
7813;SDS011;3952;48.364;16.022;2023-01-08T03:08:41;36.67;;;21.17;;
7813;SDS011;3952;48.364;16.022;2023-01-08T03:11:11;38.33;;;21.37;;
7813;SDS011;3952;48.364;16.022;2023-01-08T03:13:42;38.60;;;22.80;;
7813;SDS011;3952;48.364;16.022;2023-01-08T03:16:15;40.40;;;22.43;;
7813;SDS011;3952;48.364;16.022;2023-01-08T03:18:46;37.53;;;22.93;;
7813;SDS011;3952;48.364;16.022;2023-01-08T03:21:17;39.70;;;22.57;;
7813;SDS011;3952;48.364;16.022;2023-01-08T03:23:47;39.57;;;22.10;;
7813;SDS011;3952;48.364;16.022;2023-01-08T03:26:17;42.93;;;23.47;;
7813;SDS011;3952;48.364;16.022;2023-01-08T03:28:50;39.87;;;22.87;;
7813;SDS011;3952;48.364;16.022;2023-01-08T03:31:19;39.80;;;23.03;;
7813;SDS011;3952;48.364;16.022;2023-01-08T03:33:49;49.00;;;24.47;;
7813;SDS011;3952;48.364;16.022;2023-01-08T03:36:17;44.50;;;24.63;;
7813;SDS011;3952;48.364;16.022;2023-01-08T03:38:48;41.30;;;23.53;;
7813;SDS011;3952;48.364;16.022;2023-01-08T03:41:19;44.33;;;23.80;;
7813;SDS011;3952;48.364;16.022;2023-01-08T03:43:50;41.83;;;23.10;;
7813;SDS011;3952;48.364;16.022;2023-01-08T03:46:19;37.47;;;21.10;;
7813;SDS011;3952;48.364;16.022;2023-01-08T03:48:47;44.73;;;24.83;;
7813;SDS011;3952;48.364;16.022;2023-01-08T03:51:16;39.73;;;23.50;;
7813;SDS011;3952;48.364;16.022;2023-01-08T03:53:44;39.30;;;22.10;;
7813;SDS011;3952;48.364;16.022;2023-01-08T03:56:12;45.13;;;23.70;;
7813;SDS011;3952;48.364;16.022;2023-01-08T03:58:39;38.60;;;22.83;;
7813;SDS011;3952;48.364;16.022;2023-01-08T04:01:07;40.83;;;23.73;;
7813;SDS011;3952;48.364;16.022;2023-01-08T04:03:35;37.97;;;22.40;;
7813;SDS011;3952;48.364;16.022;2023-01-08T04:06:02;39.93;;;22.80;;
7813;SDS011;3952;48.364;16.022;2023-01-08T04:08:29;38.70;;;24.70;;
7813;SDS011;3952;48.364;16.022;2023-01-08T04:10:56;40.63;;;24.03;;
7813;SDS011;3952;48.364;16.022;2023-01-08T04:13:24;43.53;;;25.00;;
7813;SDS011;3952;48.364;16.022;2023-01-08T04:15:51;45.17;;;24.97;;
7813;SDS011;3952;48.364;16.022;2023-01-08T04:18:19;44.20;;;25.10;;
7813;SDS011;3952;48.364;16.022;2023-01-08T04:20:46;47.30;;;25.97;;
7813;SDS011;3952;48.364;16.022;2023-01-08T04:23:14;46.10;;;25.67;;
7813;SDS011;3952;48.364;16.022;2023-01-08T04:25:41;47.57;;;26.17;;
7813;SDS011;3952;48.364;16.022;2023-01-08T04:28:08;49.07;;;27.17;;
7813;SDS011;3952;48.364;16.022;2023-01-08T04:30:36;49.63;;;26.80;;
7813;SDS011;3952;48.364;16.022;2023-01-08T04:33:03;44.73;;;25.23;;
7813;SDS011;3952;48.364;16.022;2023-01-08T04:35:32;46.10;;;25.77;;
7813;SDS011;3952;48.364;16.022;2023-01-08T04:37:59;46.33;;;24.73;;
7813;SDS011;3952;48.364;16.022;2023-01-08T04:40:26;45.60;;;27.07;;
7813;SDS011;3952;48.364;16.022;2023-01-08T04:42:53;44.33;;;24.80;;
7813;SDS011;3952;48.364;16.022;2023-01-08T04:45:21;45.10;;;24.77;;
7813;SDS011;3952;48.364;16.022;2023-01-08T04:47:48;49.47;;;26.53;;
7813;SDS011;3952;48.364;16.022;2023-01-08T04:50:21;47.50;;;26.70;;
7813;SDS011;3952;48.364;16.022;2023-01-08T04:52:50;48.70;;;27.03;;
7813;SDS011;3952;48.364;16.022;2023-01-08T04:55:18;50.83;;;27.20;;
7813;SDS011;3952;48.364;16.022;2023-01-08T04:57:45;52.77;;;27.53;;
7813;SDS011;3952;48.364;16.022;2023-01-08T05:00:14;49.03;;;26.50;;
7813;SDS011;3952;48.364;16.022;2023-01-08T05:02:41;55.17;;;26.77;;
7813;SDS011;3952;48.364;16.022;2023-01-08T05:05:09;54.93;;;27.80;;
7813;SDS011;3952;48.364;16.022;2023-01-08T05:07:36;47.00;;;26.33;;
7813;SDS011;3952;48.364;16.022;2023-01-08T05:10:05;47.90;;;27.60;;
7813;SDS011;3952;48.364;16.022;2023-01-08T05:12:33;52.17;;;25.97;;
7813;SDS011;3952;48.364;16.022;2023-01-08T05:15:00;49.60;;;25.70;;
7813;SDS011;3952;48.364;16.022;2023-01-08T05:17:27;54.60;;;26.53;;
7813;SDS011;3952;48.364;16.022;2023-01-08T05:19:54;48.67;;;25.30;;
7813;SDS011;3952;48.364;16.022;2023-01-08T05:22:22;52.57;;;26.57;;
7813;SDS011;3952;48.364;16.022;2023-01-08T05:24:49;48.80;;;25.83;;
7813;SDS011;3952;48.364;16.022;2023-01-08T05:27:17;52.57;;;26.47;;
7813;SDS011;3952;48.364;16.022;2023-01-08T05:29:45;48.60;;;25.30;;
7813;SDS011;3952;48.364;16.022;2023-01-08T05:32:13;60.77;;;26.13;;
7813;SDS011;3952;48.364;16.022;2023-01-08T05:34:41;53.63;;;26.37;;
7813;SDS011;3952;48.364;16.022;2023-01-08T05:37:09;52.47;;;25.77;;
7813;SDS011;3952;48.364;16.022;2023-01-08T05:39:36;54.17;;;27.63;;
7813;SDS011;3952;48.364;16.022;2023-01-08T05:42:03;54.63;;;26.77;;
7813;SDS011;3952;48.364;16.022;2023-01-08T05:44:32;51.80;;;25.73;;
7813;SDS011;3952;48.364;16.022;2023-01-08T05:46:59;58.93;;;28.23;;
7813;SDS011;3952;48.364;16.022;2023-01-08T05:49:27;55.27;;;27.57;;
7813;SDS011;3952;48.364;16.022;2023-01-08T05:51:54;58.13;;;27.63;;
7813;SDS011;3952;48.364;16.022;2023-01-08T05:54:21;61.00;;;28.00;;
7813;SDS011;3952;48.364;16.022;2023-01-08T05:56:48;57.30;;;27.83;;
7813;SDS011;3952;48.364;16.022;2023-01-08T05:59:15;52.67;;;26.53;;
7813;SDS011;3952;48.364;16.022;2023-01-08T06:01:44;57.27;;;27.20;;
7813;SDS011;3952;48.364;16.022;2023-01-08T06:04:11;57.13;;;27.70;;
7813;SDS011;3952;48.364;16.022;2023-01-08T06:06:38;53.17;;;27.23;;
7813;SDS011;3952;48.364;16.022;2023-01-08T06:09:05;58.27;;;27.67;;
7813;SDS011;3952;48.364;16.022;2023-01-08T06:11:33;58.17;;;27.33;;
7813;SDS011;3952;48.364;16.022;2023-01-08T06:14:00;63.77;;;27.63;;
7813;SDS011;3952;48.364;16.022;2023-01-08T06:16:27;55.60;;;25.90;;
7813;SDS011;3952;48.364;16.022;2023-01-08T06:18:56;63.57;;;28.97;;
7813;SDS011;3952;48.364;16.022;2023-01-08T06:21:23;58.53;;;27.73;;
7813;SDS011;3952;48.364;16.022;2023-01-08T06:23:50;53.70;;;26.30;;
7813;SDS011;3952;48.364;16.022;2023-01-08T06:26:17;51.17;;;26.07;;
7813;SDS011;3952;48.364;16.022;2023-01-08T06:28:45;59.13;;;27.10;;
7813;SDS011;3952;48.364;16.022;2023-01-08T06:31:12;48.23;;;26.17;;
7813;SDS011;3952;48.364;16.022;2023-01-08T06:33:39;56.13;;;25.60;;
7813;SDS011;3952;48.364;16.022;2023-01-08T06:36:08;52.90;;;25.87;;
7813;SDS011;3952;48.364;16.022;2023-01-08T06:38:36;56.80;;;26.67;;
7813;SDS011;3952;48.364;16.022;2023-01-08T06:41:03;54.43;;;26.40;;
7813;SDS011;3952;48.364;16.022;2023-01-08T06:43:31;54.67;;;26.47;;
7813;SDS011;3952;48.364;16.022;2023-01-08T06:45:59;48.47;;;24.80;;
7813;SDS011;3952;48.364;16.022;2023-01-08T06:48:26;52.53;;;25.57;;
7813;SDS011;3952;48.364;16.022;2023-01-08T06:50:53;55.33;;;26.70;;
7813;SDS011;3952;48.364;16.022;2023-01-08T06:53:22;57.37;;;26.10;;
7813;SDS011;3952;48.364;16.022;2023-01-08T06:55:50;54.53;;;26.17;;
7813;SDS011;3952;48.364;16.022;2023-01-08T06:58:22;55.07;;;26.60;;
7813;SDS011;3952;48.364;16.022;2023-01-08T07:00:49;55.03;;;27.03;;
7813;SDS011;3952;48.364;16.022;2023-01-08T07:03:17;54.53;;;26.23;;
7813;SDS011;3952;48.364;16.022;2023-01-08T07:05:44;58.87;;;27.50;;
7813;SDS011;3952;48.364;16.022;2023-01-08T07:08:12;59.00;;;27.73;;
7813;SDS011;3952;48.364;16.022;2023-01-08T07:10:42;56.10;;;26.97;;
7813;SDS011;3952;48.364;16.022;2023-01-08T07:13:11;59.67;;;26.20;;
7813;SDS011;3952;48.364;16.022;2023-01-08T07:15:38;56.63;;;26.77;;
7813;SDS011;3952;48.364;16.022;2023-01-08T07:18:06;54.20;;;25.20;;
7813;SDS011;3952;48.364;16.022;2023-01-08T07:20:35;53.20;;;25.77;;
7813;SDS011;3952;48.364;16.022;2023-01-08T07:23:04;55.00;;;26.23;;
7813;SDS011;3952;48.364;16.022;2023-01-08T07:25:32;49.67;;;24.23;;
7813;SDS011;3952;48.364;16.022;2023-01-08T07:28:01;51.83;;;24.83;;
7813;SDS011;3952;48.364;16.022;2023-01-08T07:30:28;50.37;;;24.70;;
7813;SDS011;3952;48.364;16.022;2023-01-08T07:32:59;58.13;;;26.83;;
7813;SDS011;3952;48.364;16.022;2023-01-08T07:35:26;52.13;;;25.60;;
7813;SDS011;3952;48.364;16.022;2023-01-08T07:37:53;53.77;;;25.17;;
7813;SDS011;3952;48.364;16.022;2023-01-08T07:40:21;48.43;;;24.77;;
7813;SDS011;3952;48.364;16.022;2023-01-08T07:42:55;54.63;;;26.03;;
7813;SDS011;3952;48.364;16.022;2023-01-08T07:45:25;49.40;;;24.37;;
7813;SDS011;3952;48.364;16.022;2023-01-08T07:47:52;49.70;;;24.30;;
7813;SDS011;3952;48.364;16.022;2023-01-08T07:50:21;55.77;;;25.43;;
7813;SDS011;3952;48.364;16.022;2023-01-08T07:52:49;52.10;;;23.90;;
7813;SDS011;3952;48.364;16.022;2023-01-08T07:55:16;53.73;;;24.83;;
7813;SDS011;3952;48.364;16.022;2023-01-08T07:57:43;53.73;;;25.63;;
7813;SDS011;3952;48.364;16.022;2023-01-08T08:00:11;51.50;;;24.67;;
7813;SDS011;3952;48.364;16.022;2023-01-08T08:02:40;51.43;;;24.87;;
7813;SDS011;3952;48.364;16.022;2023-01-08T08:05:08;51.37;;;25.43;;
7813;SDS011;3952;48.364;16.022;2023-01-08T08:07:35;48.40;;;24.80;;
7813;SDS011;3952;48.364;16.022;2023-01-08T08:10:03;51.37;;;24.80;;
7813;SDS011;3952;48.364;16.022;2023-01-08T08:12:31;48.13;;;24.23;;
7813;SDS011;3952;48.364;16.022;2023-01-08T08:14:58;47.10;;;22.77;;
7813;SDS011;3952;48.364;16.022;2023-01-08T08:17:25;50.93;;;23.20;;
7813;SDS011;3952;48.364;16.022;2023-01-08T08:19:54;47.60;;;23.50;;
7813;SDS011;3952;48.364;16.022;2023-01-08T08:22:21;49.60;;;23.43;;
7813;SDS011;3952;48.364;16.022;2023-01-08T08:24:48;46.83;;;23.67;;
7813;SDS011;3952;48.364;16.022;2023-01-08T08:27:16;42.33;;;22.13;;
7813;SDS011;3952;48.364;16.022;2023-01-08T08:29:43;44.17;;;22.37;;
7813;SDS011;3952;48.364;16.022;2023-01-08T08:32:10;42.57;;;21.77;;
7813;SDS011;3952;48.364;16.022;2023-01-08T08:34:37;41.57;;;21.97;;
7813;SDS011;3952;48.364;16.022;2023-01-08T08:37:06;42.23;;;20.67;;
7813;SDS011;3952;48.364;16.022;2023-01-08T08:39:34;40.20;;;20.93;;
7813;SDS011;3952;48.364;16.022;2023-01-08T08:42:03;33.83;;;20.60;;
7813;SDS011;3952;48.364;16.022;2023-01-08T08:44:30;39.40;;;20.23;;
7813;SDS011;3952;48.364;16.022;2023-01-08T08:46:57;40.40;;;21.37;;
7813;SDS011;3952;48.364;16.022;2023-01-08T08:49:24;37.83;;;20.20;;
7813;SDS011;3952;48.364;16.022;2023-01-08T08:51:51;38.47;;;20.37;;
7813;SDS011;3952;48.364;16.022;2023-01-08T08:54:20;39.30;;;21.00;;
7813;SDS011;3952;48.364;16.022;2023-01-08T08:56:47;39.23;;;19.43;;
7813;SDS011;3952;48.364;16.022;2023-01-08T08:59:14;40.73;;;20.37;;
7813;SDS011;3952;48.364;16.022;2023-01-08T09:01:41;39.33;;;19.57;;
7813;SDS011;3952;48.364;16.022;2023-01-08T09:04:09;37.23;;;20.33;;
7813;SDS011;3952;48.364;16.022;2023-01-08T09:06:36;35.67;;;19.23;;
7813;SDS011;3952;48.364;16.022;2023-01-08T09:09:03;35.80;;;19.20;;
7813;SDS011;3952;48.364;16.022;2023-01-08T09:11:32;42.77;;;21.90;;
7813;SDS011;3952;48.364;16.022;2023-01-08T09:13:59;40.63;;;20.57;;
7813;SDS011;3952;48.364;16.022;2023-01-08T09:16:26;43.77;;;22.73;;
7813;SDS011;3952;48.364;16.022;2023-01-08T09:18:53;45.47;;;23.17;;
7813;SDS011;3952;48.364;16.022;2023-01-08T09:21:21;37.20;;;20.47;;
7813;SDS011;3952;48.364;16.022;2023-01-08T09:23:48;41.67;;;21.67;;
7813;SDS011;3952;48.364;16.022;2023-01-08T09:26:15;40.40;;;21.10;;
7813;SDS011;3952;48.364;16.022;2023-01-08T09:28:44;43.53;;;22.00;;
7813;SDS011;3952;48.364;16.022;2023-01-08T09:31:11;40.87;;;21.37;;
7813;SDS011;3952;48.364;16.022;2023-01-08T09:33:38;41.63;;;21.07;;
7813;SDS011;3952;48.364;16.022;2023-01-08T09:36:07;39.20;;;21.13;;
7813;SDS011;3952;48.364;16.022;2023-01-08T09:38:36;39.77;;;19.53;;
7813;SDS011;3952;48.364;16.022;2023-01-08T09:41:04;38.40;;;21.10;;
7813;SDS011;3952;48.364;16.022;2023-01-08T09:43:35;44.50;;;20.87;;
7813;SDS011;3952;48.364;16.022;2023-01-08T09:46:05;44.87;;;21.90;;
7813;SDS011;3952;48.364;16.022;2023-01-08T09:48:34;44.70;;;21.40;;
7813;SDS011;3952;48.364;16.022;2023-01-08T09:51:03;45.70;;;22.63;;
7813;SDS011;3952;48.364;16.022;2023-01-08T09:53:34;45.83;;;22.63;;
7813;SDS011;3952;48.364;16.022;2023-01-08T09:56:02;41.13;;;20.53;;
7813;SDS011;3952;48.364;16.022;2023-01-08T09:58:37;45.97;;;22.87;;
7813;SDS011;3952;48.364;16.022;2023-01-08T10:01:08;44.50;;;21.17;;
7813;SDS011;3952;48.364;16.022;2023-01-08T10:03:39;46.57;;;22.00;;
7813;SDS011;3952;48.364;16.022;2023-01-08T10:06:09;47.53;;;22.47;;
7813;SDS011;3952;48.364;16.022;2023-01-08T10:08:37;40.00;;;21.37;;
7813;SDS011;3952;48.364;16.022;2023-01-08T10:11:05;43.23;;;21.53;;
7813;SDS011;3952;48.364;16.022;2023-01-08T10:13:36;46.60;;;23.30;;
7813;SDS011;3952;48.364;16.022;2023-01-08T10:16:06;46.77;;;23.03;;
7813;SDS011;3952;48.364;16.022;2023-01-08T10:18:38;46.23;;;22.17;;
7813;SDS011;3952;48.364;16.022;2023-01-08T10:21:07;45.73;;;22.43;;
7813;SDS011;3952;48.364;16.022;2023-01-08T10:23:47;45.50;;;21.77;;
7813;SDS011;3952;48.364;16.022;2023-01-08T10:26:23;47.07;;;22.37;;
7813;SDS011;3952;48.364;16.022;2023-01-08T10:28:51;41.60;;;22.33;;
7813;SDS011;3952;48.364;16.022;2023-01-08T10:31:32;39.03;;;21.13;;
7813;SDS011;3952;48.364;16.022;2023-01-08T10:34:06;39.63;;;20.93;;
7813;SDS011;3952;48.364;16.022;2023-01-08T10:36:37;43.93;;;22.40;;
7813;SDS011;3952;48.364;16.022;2023-01-08T10:39:05;41.93;;;21.10;;
7813;SDS011;3952;48.364;16.022;2023-01-08T10:41:44;43.70;;;21.13;;
7813;SDS011;3952;48.364;16.022;2023-01-08T10:44:14;39.07;;;21.50;;
7813;SDS011;3952;48.364;16.022;2023-01-08T10:46:45;35.40;;;20.03;;
7813;SDS011;3952;48.364;16.022;2023-01-08T10:49:15;42.07;;;20.70;;
7813;SDS011;3952;48.364;16.022;2023-01-08T10:51:49;36.97;;;19.80;;
7813;SDS011;3952;48.364;16.022;2023-01-08T10:57:16;37.27;;;20.23;;
7813;SDS011;3952;48.364;16.022;2023-01-08T10:59:49;38.53;;;19.80;;
7813;SDS011;3952;48.364;16.022;2023-01-08T11:02:23;29.37;;;16.50;;
7813;SDS011;3952;48.364;16.022;2023-01-08T11:04:56;34.40;;;18.00;;
7813;SDS011;3952;48.364;16.022;2023-01-08T11:07:25;32.03;;;17.37;;
7813;SDS011;3952;48.364;16.022;2023-01-08T11:09:53;31.10;;;16.13;;
7813;SDS011;3952;48.364;16.022;2023-01-08T11:15:05;28.60;;;15.80;;
7813;SDS011;3952;48.364;16.022;2023-01-08T11:17:50;31.73;;;16.80;;
7813;SDS011;3952;48.364;16.022;2023-01-08T11:20:19;26.67;;;16.07;;
7813;SDS011;3952;48.364;16.022;2023-01-08T11:22:49;27.73;;;15.97;;
7813;SDS011;3952;48.364;16.022;2023-01-08T11:25:18;29.87;;;15.90;;
7813;SDS011;3952;48.364;16.022;2023-01-08T11:27:52;28.83;;;16.43;;
7813;SDS011;3952;48.364;16.022;2023-01-08T11:30:22;29.53;;;15.97;;
7813;SDS011;3952;48.364;16.022;2023-01-08T11:32:53;26.27;;;15.43;;
7813;SDS011;3952;48.364;16.022;2023-01-08T11:35:26;25.80;;;15.33;;
7813;SDS011;3952;48.364;16.022;2023-01-08T11:37:56;27.43;;;15.20;;
7813;SDS011;3952;48.364;16.022;2023-01-08T11:40:31;25.90;;;15.33;;
7813;SDS011;3952;48.364;16.022;2023-01-08T11:43:10;27.83;;;14.20;;
7813;SDS011;3952;48.364;16.022;2023-01-08T11:45:50;21.73;;;14.13;;
7813;SDS011;3952;48.364;16.022;2023-01-08T11:51:26;22.60;;;14.33;;
7813;SDS011;3952;48.364;16.022;2023-01-08T11:54:07;26.37;;;15.53;;
7813;SDS011;3952;48.364;16.022;2023-01-08T11:56:49;25.03;;;15.10;;
7813;SDS011;3952;48.364;16.022;2023-01-08T11:59:29;29.10;;;15.27;;
7813;SDS011;3952;48.364;16.022;2023-01-08T12:02:07;28.67;;;16.00;;
7813;SDS011;3952;48.364;16.022;2023-01-08T12:04:54;23.30;;;15.03;;
7813;SDS011;3952;48.364;16.022;2023-01-08T12:07:49;24.47;;;14.97;;
7813;SDS011;3952;48.364;16.022;2023-01-08T12:10:25;23.90;;;13.97;;
7813;SDS011;3952;48.364;16.022;2023-01-08T12:13:00;24.30;;;14.20;;
7813;SDS011;3952;48.364;16.022;2023-01-08T12:15:43;23.20;;;13.60;;
7813;SDS011;3952;48.364;16.022;2023-01-08T12:18:28;24.87;;;13.80;;
7813;SDS011;3952;48.364;16.022;2023-01-08T12:21:09;23.50;;;13.53;;
7813;SDS011;3952;48.364;16.022;2023-01-08T12:23:46;22.57;;;13.83;;
7813;SDS011;3952;48.364;16.022;2023-01-08T12:26:31;23.20;;;13.83;;
7813;SDS011;3952;48.364;16.022;2023-01-08T12:32:13;27.70;;;14.77;;
7813;SDS011;3952;48.364;16.022;2023-01-08T12:34:48;23.50;;;13.90;;
7813;SDS011;3952;48.364;16.022;2023-01-08T12:37:25;24.30;;;13.97;;
7813;SDS011;3952;48.364;16.022;2023-01-08T12:39:57;20.90;;;14.33;;
7813;SDS011;3952;48.364;16.022;2023-01-08T12:42:31;24.53;;;15.20;;
7813;SDS011;3952;48.364;16.022;2023-01-08T12:45:03;26.20;;;15.90;;
7813;SDS011;3952;48.364;16.022;2023-01-08T12:47:39;24.43;;;14.10;;
7813;SDS011;3952;48.364;16.022;2023-01-08T12:50:15;24.87;;;14.27;;
7813;SDS011;3952;48.364;16.022;2023-01-08T12:52:51;25.33;;;14.83;;
7813;SDS011;3952;48.364;16.022;2023-01-08T12:55:26;25.20;;;14.23;;
7813;SDS011;3952;48.364;16.022;2023-01-08T12:58:07;23.17;;;14.20;;
7813;SDS011;3952;48.364;16.022;2023-01-08T13:00:44;27.33;;;15.40;;
7813;SDS011;3952;48.364;16.022;2023-01-08T13:03:20;26.03;;;14.47;;
7813;SDS011;3952;48.364;16.022;2023-01-08T13:05:50;25.07;;;14.33;;
7813;SDS011;3952;48.364;16.022;2023-01-08T13:08:25;22.77;;;14.03;;
7813;SDS011;3952;48.364;16.022;2023-01-08T13:10:58;20.53;;;13.20;;
7813;SDS011;3952;48.364;16.022;2023-01-08T13:13:26;22.03;;;13.10;;
7813;SDS011;3952;48.364;16.022;2023-01-08T13:16:06;22.83;;;13.07;;
7813;SDS011;3952;48.364;16.022;2023-01-08T13:18:49;20.03;;;13.20;;
7813;SDS011;3952;48.364;16.022;2023-01-08T13:21:18;18.57;;;12.77;;
7813;SDS011;3952;48.364;16.022;2023-01-08T13:24:06;18.13;;;12.87;;
7813;SDS011;3952;48.364;16.022;2023-01-08T13:26:53;20.43;;;13.10;;
7813;SDS011;3952;48.364;16.022;2023-01-08T13:29:25;19.53;;;12.40;;
7813;SDS011;3952;48.364;16.022;2023-01-08T13:32:03;19.83;;;12.77;;
7813;SDS011;3952;48.364;16.022;2023-01-08T13:34:35;18.47;;;12.37;;
7813;SDS011;3952;48.364;16.022;2023-01-08T13:37:06;20.60;;;13.40;;
7813;SDS011;3952;48.364;16.022;2023-01-08T13:39:36;18.30;;;12.60;;
7813;SDS011;3952;48.364;16.022;2023-01-08T13:42:17;16.60;;;12.37;;
7813;SDS011;3952;48.364;16.022;2023-01-08T13:44:47;18.03;;;12.33;;
7813;SDS011;3952;48.364;16.022;2023-01-08T13:47:17;18.13;;;12.07;;
7813;SDS011;3952;48.364;16.022;2023-01-08T13:49:49;20.53;;;13.43;;
7813;SDS011;3952;48.364;16.022;2023-01-08T13:55:14;20.17;;;13.07;;
7813;SDS011;3952;48.364;16.022;2023-01-08T13:57:45;16.20;;;12.13;;
7813;SDS011;3952;48.364;16.022;2023-01-08T14:00:20;18.30;;;12.50;;
7813;SDS011;3952;48.364;16.022;2023-01-08T14:02:50;19.40;;;12.20;;
7813;SDS011;3952;48.364;16.022;2023-01-08T14:05:20;22.37;;;12.10;;
7813;SDS011;3952;48.364;16.022;2023-01-08T14:07:53;17.70;;;12.23;;
7813;SDS011;3952;48.364;16.022;2023-01-08T14:10:22;16.87;;;12.27;;
7813;SDS011;3952;48.364;16.022;2023-01-08T14:12:50;15.93;;;12.70;;
7813;SDS011;3952;48.364;16.022;2023-01-08T14:15:20;17.13;;;12.97;;
7813;SDS011;3952;48.364;16.022;2023-01-08T14:17:49;14.80;;;11.70;;
7813;SDS011;3952;48.364;16.022;2023-01-08T14:20:20;15.97;;;11.73;;
7813;SDS011;3952;48.364;16.022;2023-01-08T14:22:54;17.23;;;11.90;;
7813;SDS011;3952;48.364;16.022;2023-01-08T14:25:23;14.47;;;11.53;;
7813;SDS011;3952;48.364;16.022;2023-01-08T14:27:55;17.27;;;11.90;;
7813;SDS011;3952;48.364;16.022;2023-01-08T14:30:27;16.70;;;11.50;;
7813;SDS011;3952;48.364;16.022;2023-01-08T14:32:55;17.30;;;12.30;;
7813;SDS011;3952;48.364;16.022;2023-01-08T14:35:28;16.87;;;12.10;;
7813;SDS011;3952;48.364;16.022;2023-01-08T14:37:59;18.30;;;12.17;;
7813;SDS011;3952;48.364;16.022;2023-01-08T14:40:29;18.90;;;15.43;;
7813;SDS011;3952;48.364;16.022;2023-01-08T14:43:05;21.40;;;15.70;;
7813;SDS011;3952;48.364;16.022;2023-01-08T14:45:35;20.10;;;16.20;;
7813;SDS011;3952;48.364;16.022;2023-01-08T14:48:15;18.40;;;14.53;;
7813;SDS011;3952;48.364;16.022;2023-01-08T14:50:51;17.80;;;12.57;;
7813;SDS011;3952;48.364;16.022;2023-01-08T14:53:27;18.17;;;13.40;;
7813;SDS011;3952;48.364;16.022;2023-01-08T14:55:58;19.67;;;13.63;;
7813;SDS011;3952;48.364;16.022;2023-01-08T14:58:28;16.67;;;13.30;;
7813;SDS011;3952;48.364;16.022;2023-01-08T15:01:00;20.67;;;15.57;;
7813;SDS011;3952;48.364;16.022;2023-01-08T15:03:31;17.87;;;13.53;;
7813;SDS011;3952;48.364;16.022;2023-01-08T15:06:00;19.60;;;14.07;;
7813;SDS011;3952;48.364;16.022;2023-01-08T15:08:31;20.57;;;14.40;;
7813;SDS011;3952;48.364;16.022;2023-01-08T15:11:01;24.77;;;15.53;;